Time;durP1;ratioP1;P1;durP2;ratioP2;P2;SDS_P1;SDS_P2;PMS_P1;PMS_P2;Temp;Humidity;BMP_temperature;BMP_pressure;BME280_temperature;BME280_humidity;BME280_pressure;Samples;Min_cycle;Max_cycle;Signal;HPM_P1;HPM_P2
2022/08/05 00:01:24;;;;;;;4.80;3.90;;;27.20;57.00;;;;;;221410;1262;22574;-55
2022/08/05 00:06:36;;;;;;;5.20;4.30;;;27.20;57.00;;;;;;221202;1262;24384;-57
2022/08/05 00:11:38;;;;;;;4.20;3.80;;;27.20;57.00;;;;;;220986;1265;25427;-54
2022/08/05 00:17:01;;;;;;;4.60;4.10;;;27.20;57.40;;;;;;221120;1262;22764;-56
2022/08/05 00:22:07;;;;;;;4.60;4.10;;;27.20;57.00;;;;;;221522;1262;25289;-55
2022/08/05 00:27:13;;;;;;;4.70;4.20;;;27.20;57.00;;;;;;221291;1262;25257;-56
2022/08/05 00:32:18;;;;;;;4.70;4.30;;;27.20;57.00;;;;;;221078;1262;22764;-54
2022/08/05 00:37:20;;;;;;;5.00;4.30;;;27.20;57.10;;;;;;221271;1265;22700;-57
2022/08/05 00:42:34;;;;;;;5.90;4.20;;;27.20;57.10;;;;;;221121;1265;22711;-55
2022/08/05 00:47:39;;;;;;;4.50;4.10;;;27.20;57.00;;;;;;221008;1265;25209;-57
2022/08/05 00:53:01;;;;;;;6.20;4.70;;;27.20;57.00;;;;;;221127;1265;25325;-57
2022/08/05 00:58:04;;;;;;;4.50;4.10;;;27.20;57.00;;;;;;221409;1262;24109;-57
2022/08/05 01:03:06;;;;;;;5.50;4.40;;;27.20;57.40;;;;;;220962;1265;24360;-56
2022/08/05 01:08:11;;;;;;;4.50;4.10;;;27.20;56.70;;;;;;221244;1262;22561;-57
2022/08/05 01:14:00;;;;;;;5.60;4.80;;;27.20;57.20;;;;;;221068;1262;22545;-58
2022/08/05 01:19:21;;;;;;;5.00;4.50;;;27.10;57.00;;;;;;221204;1265;22626;-57
2022/08/05 01:24:46;;;;;;;5.60;4.80;;;27.20;57.10;;;;;;221220;1265;24925;-58
2022/08/05 01:29:52;;;;;;;4.80;4.30;;;27.10;57.00;;;;;;221616;1262;22563;-58
2022/08/05 01:35:08;;;;;;;4.90;4.40;;;27.10;57.10;;;;;;221615;1262;24369;-58
2022/08/05 01:40:14;;;;;;;4.80;4.20;;;27.10;57.50;;;;;;221107;1262;24201;-57
2022/08/05 01:45:20;;;;;;;4.10;3.60;;;27.10;57.20;;;;;;221520;1261;23946;-58
2022/08/05 01:50:36;;;;;;;5.40;4.00;;;27.10;57.40;;;;;;221389;1262;25599;-57
2022/08/05 01:55:44;;;;;;;4.10;3.70;;;27.00;57.30;;;;;;221373;1262;22580;-60
2022/08/05 02:00:50;;;;;;;4.70;4.20;;;27.00;57.00;;;;;;221412;1261;22950;-57
2022/08/05 02:05:53;;;;;;;4.50;4.00;;;27.00;57.00;;;;;;221622;1262;22545;-58
2022/08/05 02:11:07;;;;;;;4.80;4.20;;;27.00;57.00;;;;;;221450;1262;22541;-57
2022/08/05 02:16:51;;;;;;;4.90;4.30;;;27.00;57.10;;;;;;221284;1262;22534;-60
2022/08/05 02:22:01;;;;;;;4.60;4.10;;;27.00;57.20;;;;;;219891;1271;25689;-57
2022/08/05 02:27:07;;;;;;;5.30;4.60;;;27.00;57.10;;;;;;221162;1265;22729;-57
2022/08/05 02:32:13;;;;;;;5.00;4.30;;;26.90;57.10;;;;;;221230;1265;22541;-59
2022/08/05 02:37:27;;;;;;;4.80;4.30;;;27.00;57.20;;;;;;221229;1265;23945;-56
2022/08/05 02:42:35;;;;;;;4.90;4.30;;;26.90;57.40;;;;;;221556;1262;24324;-58
2022/08/05 02:47:40;;;;;;;5.60;4.00;;;26.90;57.10;;;;;;221095;1262;22569;-57
2022/08/05 02:53:04;;;;;;;4.80;4.20;;;26.90;57.20;;;;;;221643;1262;24413;-57
2022/08/05 02:58:15;;;;;;;4.40;3.80;;;26.90;57.10;;;;;;221353;1265;24402;-60
2022/08/05 03:03:19;;;;;;;5.30;4.30;;;26.90;57.10;;;;;;221447;1262;22541;-57
2022/08/05 03:08:25;;;;;;;4.60;4.20;;;26.90;57.10;;;;;;221691;1262;23943;-57
2022/08/05 03:13:31;;;;;;;5.90;4.40;;;26.90;57.40;;;;;;221279;1262;25489;-56
2022/08/05 03:18:53;;;;;;;5.50;4.70;;;26.90;57.80;;;;;;221358;1262;22532;-59
2022/08/05 03:23:57;;;;;;;5.50;4.50;;;26.90;57.20;;;;;;221152;1262;24109;-57
2022/08/05 03:28:59;;;;;;;4.90;4.40;;;26.90;57.50;;;;;;221484;1261;22567;-57
2022/08/05 03:34:03;;;;;;;4.30;3.70;;;26.90;57.30;;;;;;221479;1262;25225;-58
2022/08/05 03:39:07;;;;;;;5.00;4.10;;;26.90;57.10;;;;;;221486;1262;22541;-56
2022/08/05 03:44:14;;;;;;;4.80;4.30;;;26.90;57.20;;;;;;221329;1262;22594;-57
2022/08/05 03:49:21;;;;;;;4.60;4.10;;;26.80;57.20;;;;;;221355;1262;22536;-57
2022/08/05 03:54:38;;;;;;;4.40;4.00;;;26.80;57.10;;;;;;221438;1261;22529;-59
2022/08/05 04:00:07;;;;;;;4.80;4.20;;;26.90;57.10;;;;;;221500;1262;24290;-58
2022/08/05 04:05:17;;;;;;;5.50;3.80;;;26.80;57.20;;;;;;221179;1262;24395;-57
2022/08/05 04:10:19;;;;;;;6.20;4.00;;;26.80;57.20;;;;;;221262;1262;22544;-59
2022/08/05 04:15:22;;;;;;;4.70;4.10;;;26.80;57.20;;;;;;221317;1262;25302;-58
2022/08/05 04:20:26;;;;;;;5.20;4.20;;;26.80;57.10;;;;;;221175;1262;22667;-56
2022/08/05 04:25:28;;;;;;;4.40;4.00;;;26.80;57.10;;;;;;221502;1262;22589;-60
2022/08/05 04:30:50;;;;;;;4.60;4.10;;;26.80;57.10;;;;;;221546;1262;25330;-57
2022/08/05 04:35:53;;;;;;;4.40;3.90;;;26.80;57.80;;;;;;221447;1262;22657;-57
2022/08/05 04:41:16;;;;;;;4.70;4.10;;;26.80;57.10;;;;;;221446;1262;22550;-57
2022/08/05 04:46:18;;;;;;;4.50;4.00;;;26.80;57.10;;;;;;221422;1262;23488;-57
2022/08/05 04:51:31;;;;;;;3.60;3.30;;;26.80;57.40;;;;;;221399;1262;24209;-55
2022/08/05 04:56:33;;;;;;;4.80;4.00;;;26.80;57.40;;;;;;220292;1262;1261860;-57
2022/08/05 05:01:38;;;;;;;4.30;3.60;;;26.80;57.10;;;;;;221262;1262;24538;-57
2022/08/05 05:07:01;;;;;;;6.50;3.90;;;26.80;57.20;;;;;;221516;1262;24246;-57
2022/08/05 05:12:04;;;;;;;5.00;4.30;;;26.80;57.10;;;;;;221260;1262;24243;-57
2022/08/05 05:17:07;;;;;;;4.30;3.90;;;26.80;57.40;;;;;;221475;1262;22542;-58
2022/08/05 05:22:11;;;;;;;4.90;4.40;;;26.80;57.10;;;;;;221325;1262;25349;-58
2022/08/05 05:27:30;;;;;;;6.90;4.40;;;26.80;57.30;;;;;;221138;1262;24266;-58
2022/08/05 05:32:47;;;;;;;4.20;3.70;;;26.80;57.10;;;;;;221050;1262;25247;-57
2022/08/05 05:37:54;;;;;;;4.90;3.80;;;26.80;57.70;;;;;;221183;1262;24352;-57
2022/08/05 05:43:03;;;;;;;4.10;3.70;;;26.80;57.00;;;;;;221285;1262;22722;-57
2022/08/05 05:48:10;;;;;;;5.10;4.30;;;26.90;57.00;;;;;;221377;1262;24260;-58
2022/08/05 05:53:17;;;;;;;4.20;3.80;;;26.90;57.00;;;;;;221450;1262;22662;-57
2022/08/05 05:58:24;;;;;;;4.60;4.20;;;26.90;57.10;;;;;;221255;1262;22652;-61
2022/08/05 06:03:36;;;;;;;4.20;3.80;;;26.90;57.00;;;;;;221353;1262;25295;-57
2022/08/05 06:09:07;;;;;;;4.80;3.80;;;26.90;57.40;;;;;;221006;1262;22694;-58
2022/08/05 06:14:27;;;;;;;4.80;4.20;;;26.90;57.00;;;;;;221282;1262;24240;-55
2022/08/05 06:19:30;;;;;;;4.80;4.20;;;26.90;57.30;;;;;;221470;1264;24472;-56
2022/08/05 06:24:41;;;;;;;4.40;3.90;;;26.90;56.90;;;;;;221324;1262;22853;-57
2022/08/05 06:29:50;;;;;;;4.30;3.90;;;26.90;56.90;;;;;;221409;1262;25353;-58
2022/08/05 06:35:12;;;;;;;4.70;4.10;;;26.90;57.20;;;;;;221290;1262;25659;-57
2022/08/05 06:40:23;;;;;;;5.40;4.20;;;26.90;56.80;;;;;;221194;1262;22556;-60
2022/08/05 06:45:34;;;;;;;4.70;4.00;;;27.00;56.90;;;;;;221238;1262;25476;-58
2022/08/05 06:50:56;;;;;;;5.30;4.10;;;27.00;57.30;;;;;;221172;1262;25247;-55
2022/08/05 06:55:59;;;;;;;6.40;4.40;;;27.00;56.90;;;;;;221498;1262;22535;-58
2022/08/05 07:01:06;;;;;;;5.30;4.30;;;27.00;56.90;;;;;;221523;1262;23267;-57
2022/08/05 07:06:14;;;;;;;5.10;4.30;;;27.00;56.90;;;;;;221321;1262;25358;-58
2022/08/05 07:11:24;;;;;;;4.20;3.80;;;27.00;57.20;;;;;;221494;1262;22588;-60
2022/08/05 07:22:09;;;;;;;6.00;4.10;;;27.00;56.80;;;;;;221214;1262;24293;-59
2022/08/05 07:27:17;;;;;;;4.50;3.70;;;27.00;56.90;;;;;;221347;1262;24320;-59
2022/08/05 07:32:26;;;;;;;4.70;4.10;;;27.10;56.90;;;;;;221463;1262;24348;-58
2022/08/05 07:37:28;;;;;;;4.80;4.30;;;27.10;56.90;;;;;;221081;1262;25482;-58
2022/08/05 07:42:41;;;;;;;7.30;4.50;;;27.10;57.20;;;;;;221242;1262;25406;-57
2022/08/05 07:47:45;;;;;;;5.00;4.10;;;27.10;56.50;;;;;;221362;1262;23457;-58
2022/08/05 07:52:48;;;;;;;5.20;4.30;;;27.10;56.90;;;;;;221342;1262;22615;-59
2022/08/05 07:57:51;;;;;;;4.10;3.70;;;27.10;57.20;;;;;;221394;1262;25292;-57
2022/08/05 08:03:13;;;;;;;5.00;4.10;;;27.10;57.00;;;;;;221316;1262;22542;-57
2022/08/05 08:08:18;;;;;;;4.80;4.10;;;27.20;56.90;;;;;;220864;1265;26040;-57
2022/08/05 08:13:21;;;;;;;5.70;4.60;;;27.20;56.90;;;;;;221340;1262;25261;-56
2022/08/05 08:18:34;;;;;;;5.60;4.50;;;27.20;56.80;;;;;;220975;1262;25343;-56
2022/08/05 08:23:39;;;;;;;5.80;4.40;;;27.30;57.10;;;;;;221265;1262;24310;-57
2022/08/05 08:29:14;;;;;;;5.60;4.10;;;27.30;58.20;;;;;;221012;1265;22843;-57
2022/08/05 08:34:41;;;;;;;4.40;3.80;;;27.40;57.90;;;;;;221412;1265;24213;-58
2022/08/05 08:39:44;;;;;;;6.90;4.60;;;27.40;57.50;;;;;;220917;1265;24279;-60
2022/08/05 08:45:04;;;;;;;;;;;;;;;;;;;;;
2022/08/05 08:50:29;;;;;;;5.30;4.20;;;27.40;57.50;;;;;;221353;1262;24232;-56
2022/08/05 08:55:52;;;;;;;6.00;4.50;;;27.40;57.50;;;;;;221400;1262;22593;-55
2022/08/05 09:01:07;;;;;;;4.90;4.40;;;27.40;57.50;;;;;;221470;1263;24306;-55
2022/08/05 09:06:17;;;;;;;4.60;4.00;;;27.40;57.50;;;;;;221045;1262;22690;-53
2022/08/05 09:11:35;;;;;;;6.70;4.20;;;27.50;57.50;;;;;;221477;1262;26484;-56
2022/08/05 09:16:53;;;;;;;4.40;4.00;;;27.50;58.00;;;;;;221027;1265;25470;-55
2022/08/05 09:21:56;;;;;;;4.50;4.10;;;27.50;57.80;;;;;;221166;1265;22548;-56
2022/08/05 09:27:31;;;;;;;5.90;4.30;;;27.50;57.50;;;;;;221067;1265;25253;-56
2022/08/05 09:33:00;;;;;;;6.50;4.50;;;27.50;57.50;;;;;;221074;1265;22699;-57
2022/08/05 09:38:06;;;;;;;4.40;4.00;;;27.50;57.60;;;;;;220940;1267;24054;-55
2022/08/05 09:43:34;;;;;;;5.10;4.40;;;27.60;57.90;;;;;;221134;1265;22544;-57
2022/08/05 09:48:46;;;;;;;5.50;4.90;;;27.60;57.10;;;;;;221197;1261;22531;-58
2022/08/05 09:54:08;;;;;;;6.10;5.10;;;27.70;57.00;;;;;;221216;1262;22675;-55
2022/08/05 09:59:13;;;;;;;5.70;4.70;;;27.70;57.10;;;;;;221218;1262;25231;-54
2022/08/05 10:04:34;;;;;;;5.00;4.50;;;27.60;57.30;;;;;;221327;1262;23178;-55
2022/08/05 10:09:54;;;;;;;5.10;4.10;;;27.70;57.40;;;;;;221488;1262;24236;-55
2022/08/05 10:15:23;;;;;;;8.90;4.60;;;27.70;57.40;;;;;;221326;1262;25216;-56
2022/08/05 10:20:28;;;;;;;4.70;4.20;;;27.70;57.50;;;;;;221192;1262;24280;-57
2022/08/05 10:25:31;;;;;;;5.40;4.40;;;27.70;57.50;;;;;;221406;1262;23792;-54
2022/08/05 10:30:36;;;;;;;5.90;4.20;;;27.80;57.40;;;;;;221425;1264;22616;-58
2022/08/05 10:36:04;;;;;;;5.30;4.20;;;27.80;57.80;;;;;;221262;1262;22531;-58
2022/08/05 10:41:29;;;;;;;6.90;4.40;;;27.80;57.60;;;;;;221389;1262;24240;-53
2022/08/05 10:46:52;;;;;;;4.90;4.00;;;27.90;57.80;;;;;;221268;1262;24767;-55
2022/08/05 10:51:56;;;;;;;4.70;4.20;;;27.90;57.60;;;;;;221630;1262;22616;-54
2022/08/05 10:57:02;;;;;;;5.00;4.30;;;27.90;57.80;;;;;;221552;1263;25365;-55
2022/08/05 11:02:13;;;;;;;4.70;4.20;;;27.90;57.50;;;;;;221095;1262;25275;-55
2022/08/05 11:07:57;;;;;;;4.60;4.20;;;27.90;56.70;;;;;;221415;1262;24237;-56
2022/08/05 11:13:39;;;;;;;4.90;4.20;;;27.00;55.30;;;;;;220982;1265;22561;-51
2022/08/05 11:19:28;;;;;;;5.90;4.20;;;26.70;54.10;;;;;;221329;1265;24186;-54
2022/08/05 11:25:29;;;;;;;4.70;4.10;;;26.60;52.30;;;;;;221120;1265;22544;-55
2022/08/05 11:31:00;;;;;;;4.50;3.90;;;26.40;51.20;;;;;;221282;1262;23006;-54
2022/08/05 11:36:05;;;;;;;4.80;4.10;;;26.70;52.00;;;;;;221460;1262;25437;-56
2022/08/05 11:41:27;;;;;;;7.80;5.00;;;26.80;55.20;;;;;;221575;1262;24580;-54
2022/08/05 11:46:52;;;;;;;5.80;4.90;;;26.60;51.00;;;;;;221523;1262;25474;-53
2022/08/05 11:52:21;;;;;;;5.90;4.30;;;26.70;55.20;;;;;;221205;1262;22547;-56
2022/08/05 11:57:30;;;;;;;8.20;4.30;;;26.70;55.30;;;;;;221554;1264;22526;-55
2022/08/05 12:02:54;;;;;;;4.80;4.30;;;26.60;55.80;;;;;;221264;1264;25301;-54
2022/08/05 12:08:00;;;;;;;4.60;4.20;;;26.70;56.60;;;;;;221368;1264;22544;-55
2022/08/05 12:13:16;;;;;;;5.00;4.40;;;26.60;55.00;;;;;;221065;1262;24218;-54
2022/08/05 12:18:42;;;;;;;4.60;3.80;;;26.60;54.10;;;;;;221142;1261;22532;-54
2022/08/05 12:24:04;;;;;;;4.60;4.10;;;26.60;55.90;;;;;;221454;1262;22564;-57
2022/08/05 12:29:15;;;;;;;5.50;4.70;;;26.70;57.30;;;;;;221346;1262;25364;-55
2022/08/05 12:34:31;;;;;;;4.10;3.70;;;26.60;58.10;;;;;;220779;1265;23705;-61
2022/08/05 12:39:34;;;;;;;5.00;4.20;;;26.60;57.20;;;;;;221311;1265;23054;-55
2022/08/05 12:44:41;;;;;;;6.30;4.10;;;26.60;56.90;;;;;;221022;1265;22563;-57
2022/08/05 12:49:49;;;;;;;4.70;3.90;;;26.50;56.80;;;;;;221178;1265;22621;-56
2022/08/05 12:55:24;;;;;;;4.30;3.60;;;26.50;55.80;;;;;;221071;1265;26001;-56
2022/08/05 13:00:32;;;;;;;5.20;4.40;;;26.60;56.60;;;;;;221342;1262;23822;-56
2022/08/05 13:05:54;;;;;;;4.80;4.10;;;26.60;58.60;;;;;;221192;1262;24295;-60
2022/08/05 13:11:01;;;;;;;5.40;3.90;;;26.60;58.80;;;;;;220955;1263;24362;-57
2022/08/05 13:16:14;;;;;;;5.90;4.00;;;26.60;58.90;;;;;;221006;1268;25255;-53
2022/08/05 13:21:19;;;;;;;5.60;3.70;;;26.50;59.00;;;;;;221212;1267;22968;-55
2022/08/05 13:26:21;;;;;;;4.30;3.50;;;26.40;58.50;;;;;;221532;1267;22527;-58
2022/08/05 13:31:32;;;;;;;4.30;3.70;;;26.40;56.40;;;;;;221196;1265;23037;-55
2022/08/05 13:36:54;;;;;;;4.30;3.70;;;26.50;57.10;;;;;;221216;1265;22540;-57
2022/08/05 13:41:56;;;;;;;4.10;3.70;;;26.50;57.60;;;;;;221418;1262;24201;-55
2022/08/05 13:47:02;;;;;;;6.20;4.70;;;26.50;59.10;;;;;;221410;1265;22565;-59
2022/08/05 13:52:21;;;;;;;8.20;4.60;;;26.40;59.40;;;;;;221116;1265;24068;-57
2022/08/05 13:57:30;;;;;;;4.30;3.90;;;26.40;60.00;;;;;;221083;1265;22563;-52
2022/08/05 14:02:53;;;;;;;4.60;3.90;;;26.40;59.20;;;;;;220992;1265;24101;-57
2022/08/05 14:07:56;;;;;;;4.70;3.60;;;26.40;57.70;;;;;;221516;1265;24367;-54
2022/08/05 14:13:10;;;;;;;5.40;4.80;;;26.50;58.50;;;;;;221273;1265;24294;-58
2022/08/05 14:18:16;;;;;;;7.90;5.00;;;27.00;54.80;;;;;;221404;1265;26613;-57
2022/08/05 14:23:25;;;;;;;7.90;5.20;;;27.20;54.90;;;;;;221404;1265;22532;-55
2022/08/05 14:28:35;;;;;;;5.90;4.70;;;27.30;55.50;;;;;;221291;1265;24363;-58
2022/08/05 14:33:57;;;;;;;5.80;5.00;;;27.40;55.90;;;;;;221176;1265;22662;-54
2022/08/05 14:39:04;;;;;;;12.40;4.50;;;27.50;55.80;;;;;;220958;1265;25235;-56
2022/08/05 14:44:12;;;;;;;6.90;4.50;;;27.50;55.90;;;;;;221127;1265;22563;-54
2022/08/05 14:49:23;;;;;;;6.80;5.10;;;27.60;56.00;;;;;;221331;1265;23903;-54
2022/08/05 14:54:45;;;;;;;4.80;4.10;;;27.60;56.30;;;;;;220967;1267;22639;-56
2022/08/05 14:59:56;;;;;;;6.00;4.50;;;27.60;56.10;;;;;;221349;1265;24295;-60
2022/08/05 15:05:00;;;;;;;6.80;4.80;;;27.60;56.20;;;;;;221385;1265;23913;-56
2022/08/05 15:10:10;;;;;;;6.10;4.10;;;27.60;56.70;;;;;;221313;1265;24223;-54
2022/08/05 15:15:12;;;;;;;6.70;4.60;;;27.70;56.50;;;;;;221092;1265;25250;-52
2022/08/05 15:20:17;;;;;;;4.90;4.30;;;27.70;56.60;;;;;;221353;1265;25134;-54
2022/08/05 15:25:22;;;;;;;5.20;4.40;;;27.70;56.60;;;;;;221091;1265;24284;-55
2022/08/05 15:30:45;;;;;;;5.40;4.20;;;27.70;57.20;;;;;;221392;1265;22536;-60
2022/08/05 15:35:48;;;;;;;5.30;4.30;;;27.80;56.50;;;;;;221304;1261;22527;-55
2022/08/05 15:40:51;;;;;;;5.10;4.60;;;27.80;56.60;;;;;;221301;1265;22560;-56
2022/08/05 15:46:13;;;;;;;6.10;4.20;;;27.80;56.50;;;;;;221336;1262;25435;-55
2022/08/05 15:51:21;;;;;;;6.80;4.60;;;27.90;56.90;;;;;;221505;1265;22544;-54
2022/08/05 15:56:43;;;;;;;5.50;4.60;;;27.90;56.50;;;;;;221277;1265;23099;-55
2022/08/05 16:01:46;;;;;;;7.00;5.00;;;27.90;56.30;;;;;;221186;1262;22536;-56
2022/08/05 16:06:55;;;;;;;7.00;4.70;;;27.90;56.30;;;;;;221381;1265;22540;-55
2022/08/05 16:11:57;;;;;;;5.30;4.20;;;27.90;56.50;;;;;;221121;1265;22552;-53
2022/08/05 16:17:00;;;;;;;5.30;4.40;;;27.90;56.40;;;;;;221136;1265;24157;-54
2022/08/05 16:22:05;;;;;;;4.60;4.00;;;27.90;56.70;;;;;;221428;1261;25318;-55
2022/08/05 16:27:13;;;;;;;4.80;4.10;;;27.90;56.00;;;;;;221438;1264;23115;-53
2022/08/05 16:32:19;;;;;;;6.10;4.30;;;28.00;56.50;;;;;;221474;1261;22550;-55
2022/08/05 16:37:33;;;;;;;4.70;4.20;;;28.00;56.70;;;;;;221375;1262;22541;-54
2022/08/05 16:42:56;;;;;;;5.40;4.80;;;28.00;56.50;;;;;;221657;1263;24494;-56
2022/08/05 16:47:58;;;;;;;4.70;4.20;;;28.00;56.80;;;;;;221481;1262;22628;-55
2022/08/05 16:53:06;;;;;;;6.10;4.10;;;28.00;56.50;;;;;;220344;1262;1260308;-56
2022/08/05 16:58:24;;;;;;;8.60;4.20;;;28.00;56.10;;;;;;221455;1262;22544;-59
2022/08/05 17:03:32;;;;;;;4.50;3.80;;;28.00;56.50;;;;;;221624;1262;25302;-53
2022/08/05 17:08:35;;;;;;;4.90;4.20;;;28.10;56.90;;;;;;221063;1265;22536;-56
2022/08/05 17:13:55;;;;;;;;;;;28.10;56.50;;;;;;221253;1265;22552;-56
2022/08/05 17:19:07;;;;;;;4.60;4.10;;;28.10;56.60;;;;;;221094;1265;22525;-53
2022/08/05 17:24:12;;;;;;;5.00;4.00;;;28.10;56.60;;;;;;221088;1265;22635;-56
2022/08/05 17:29:33;;;;;;;5.60;4.40;;;28.10;56.60;;;;;;221068;1265;25239;-55
2022/08/05 17:34:46;;;;;;;4.50;4.00;;;28.10;56.60;;;;;;221102;1262;24240;-55
2022/08/05 17:39:51;;;;;;;5.70;4.20;;;28.10;56.60;;;;;;221509;1262;22990;-55
2022/08/05 17:44:57;;;;;;;4.80;4.10;;;28.10;56.60;;;;;;221268;1265;22557;-54
2022/08/05 17:50:02;;;;;;;6.60;4.60;;;28.10;56.70;;;;;;221556;1262;22545;-56
2022/08/05 17:55:12;;;;;;;5.00;4.00;;;28.10;56.80;;;;;;221050;1262;23470;-55
2022/08/05 18:00:17;;;;;;;5.70;4.10;;;28.10;56.80;;;;;;221293;1262;24299;-54
2022/08/05 18:05:20;;;;;;;5.40;4.30;;;28.10;56.80;;;;;;221318;1262;22534;-55
2022/08/05 18:10:22;;;;;;;4.40;4.00;;;28.10;56.90;;;;;;221192;1262;22591;-52
2022/08/05 18:15:26;;;;;;;6.10;4.30;;;28.10;56.70;;;;;;221637;1264;22709;-56
2022/08/05 18:20:29;;;;;;;4.90;4.00;;;28.10;57.00;;;;;;221356;1262;22637;-55
2022/08/05 18:25:34;;;;;;;4.80;4.30;;;28.10;56.80;;;;;;221237;1262;24408;-54
2022/08/05 18:30:37;;;;;;;5.80;4.30;;;28.10;56.80;;;;;;221426;1262;22685;-53
2022/08/05 18:35:41;;;;;;;6.20;4.60;;;28.10;56.90;;;;;;221472;1265;22525;-54
2022/08/05 18:41:06;;;;;;;4.70;4.00;;;28.10;56.70;;;;;;221323;1265;22550;-56
2022/08/05 18:46:28;;;;;;;5.00;4.00;;;28.10;56.60;;;;;;221488;1262;23936;-54
2022/08/05 18:57:11;;;;;;;7.00;4.50;;;28.10;56.90;;;;;;221300;1262;23900;-55
2022/08/05 19:02:18;;;;;;;5.40;4.20;;;28.10;56.50;;;;;;221434;1262;22610;-56
2022/08/05 19:07:30;;;;;;;5.10;4.10;;;28.10;56.50;;;;;;221299;1262;25240;-56
2022/08/05 19:12:48;;;;;;;6.60;4.80;;;28.10;56.10;;;;;;221522;1261;22567;-55
2022/08/05 19:17:51;;;;;;;5.20;4.30;;;28.10;56.10;;;;;;221430;1262;22547;-55
2022/08/05 19:23:14;;;;;;;6.10;5.40;;;28.10;56.00;;;;;;221469;1262;22560;-55
2022/08/05 19:28:41;;;;;;;7.70;5.90;;;28.10;56.00;;;;;;221411;1262;22809;-55
2022/08/05 19:33:50;;;;;;;7.00;5.60;;;28.10;56.00;;;;;;221414;1262;22547;-55
2022/08/05 19:38:58;;;;;;;10.10;6.20;;;28.00;56.00;;;;;;221517;1262;22561;-56
2022/08/05 19:44:06;;;;;;;10.40;6.30;;;28.10;56.10;;;;;;221327;1262;22617;-54
2022/08/05 19:49:25;;;;;;;7.70;5.90;;;28.10;56.20;;;;;;221477;1262;25377;-56
2022/08/05 19:54:31;;;;;;;9.50;5.90;;;28.00;56.00;;;;;;221358;1262;24273;-54
2022/08/05 19:59:39;;;;;;;8.00;6.40;;;28.00;56.30;;;;;;221239;1262;24245;-53
2022/08/05 20:05:33;;;;;;;7.80;6.60;;;28.00;55.80;;;;;;221401;1262;24418;-56
2022/08/05 20:10:53;;;;;;;8.40;6.50;;;28.00;56.60;;;;;;221228;1262;24769;-56
2022/08/05 20:15:57;;;;;;;12.20;6.90;;;28.00;56.30;;;;;;221386;1262;24237;-54
2022/08/05 20:21:03;;;;;;;7.60;6.10;;;28.00;55.80;;;;;;221386;1262;22553;-55
2022/08/05 20:26:10;;;;;;;11.60;7.00;;;28.00;56.20;;;;;;221480;1261;22643;-54
2022/08/05 20:31:23;;;;;;;10.40;7.10;;;28.00;56.20;;;;;;221105;1262;22803;-55
2022/08/05 20:37:06;;;;;;;;;;;;;;;;;;;;;
2022/08/05 20:42:47;;;;;;;8.60;6.70;;;28.00;56.00;;;;;;221251;1262;22585;-57
2022/08/05 20:48:02;;;;;;;7.10;6.30;;;28.00;56.00;;;;;;221387;1262;22627;-55
2022/08/05 20:53:10;;;;;;;7.70;6.40;;;28.00;56.00;;;;;;221385;1262;24217;-56
2022/08/05 20:58:39;;;;;;;8.00;6.80;;;28.00;55.90;;;;;;221297;1265;22691;-59
2022/08/05 21:03:48;;;;;;;7.10;6.40;;;28.00;55.80;;;;;;221149;1262;22589;-55
2022/08/05 21:08:56;;;;;;;7.20;6.40;;;28.00;55.90;;;;;;221381;1262;22723;-56
2022/08/05 21:14:23;;;;;;;8.20;6.20;;;28.00;55.90;;;;;;221399;1262;22597;-56
2022/08/05 21:19:52;;;;;;;7.50;6.50;;;28.00;56.00;;;;;;221549;1262;25309;-55
2022/08/05 21:25:21;;;;;;;11.50;6.40;;;28.00;56.20;;;;;;221276;1265;24363;-55
2022/08/05 21:30:46;;;;;;;8.30;6.50;;;28.00;55.80;;;;;;221554;1262;22535;-55
2022/08/05 21:35:55;;;;;;;7.60;6.50;;;28.00;55.90;;;;;;221386;1262;24327;-56
2022/08/05 21:41:05;;;;;;;6.60;5.90;;;28.00;55.90;;;;;;221153;1265;24219;-55
2022/08/05 21:46:12;;;;;;;7.20;6.30;;;28.00;56.20;;;;;;221165;1263;22552;-55
2022/08/05 21:51:16;;;;;;;6.70;6.00;;;28.00;56.00;;;;;;221774;1262;22547;-55
2022/08/05 21:56:38;;;;;;;7.20;6.50;;;28.00;56.10;;;;;;221417;1262;22641;-57
2022/08/05 22:01:46;;;;;;;6.90;6.20;;;27.90;56.10;;;;;;221478;1262;25345;-56
2022/08/05 22:06:48;;;;;;;7.80;6.00;;;27.90;56.30;;;;;;221282;1262;22554;-56
2022/08/05 22:11:52;;;;;;;8.60;6.20;;;27.90;56.10;;;;;;220944;1262;24210;-56
2022/08/05 22:16:56;;;;;;;9.50;6.20;;;27.90;56.10;;;;;;221477;1262;23930;-53
2022/08/05 22:22:05;;;;;;;7.00;5.60;;;27.90;56.50;;;;;;221210;1262;22538;-58
2022/08/05 22:32:52;;;;;;;7.70;5.70;;;27.90;56.30;;;;;;221245;1262;22861;-57
2022/08/05 22:37:59;;;;;;;9.10;5.90;;;27.90;56.70;;;;;;221170;1265;24225;-57
2022/08/05 22:43:02;;;;;;;10.80;6.40;;;27.90;56.40;;;;;;221234;1265;22743;-54
2022/08/05 22:48:10;;;;;;;6.50;5.90;;;27.90;56.70;;;;;;221137;1265;24198;-59
2022/08/05 22:53:12;;;;;;;6.10;5.50;;;27.90;56.80;;;;;;221282;1262;26522;-57
2022/08/05 22:58:22;;;;;;;8.10;5.50;;;27.90;57.10;;;;;;221373;1265;23927;-54
2022/08/05 23:03:38;;;;;;;7.40;5.80;;;27.90;57.30;;;;;;221148;1263;25235;-54
2022/08/05 23:09:01;;;;;;;6.30;5.50;;;27.90;57.10;;;;;;221210;1265;25301;-54
2022/08/05 23:14:23;;;;;;;7.20;5.60;;;27.90;57.20;;;;;;221343;1262;24353;-55
2022/08/05 23:19:34;;;;;;;6.20;5.60;;;27.90;57.20;;;;;;221588;1262;22535;-56
2022/08/05 23:24:49;;;;;;;8.80;5.70;;;27.90;57.60;;;;;;221368;1262;23850;-53
2022/08/05 23:29:52;;;;;;;6.40;5.70;;;27.90;57.40;;;;;;221359;1262;26602;-55
2022/08/05 23:34:56;;;;;;;6.10;5.50;;;27.90;57.70;;;;;;221509;1262;22554;-57
2022/08/05 23:40:00;;;;;;;5.90;5.20;;;27.90;57.40;;;;;;221332;1262;22537;-55
2022/08/05 23:45:10;;;;;;;7.50;5.30;;;27.90;57.50;;;;;;221451;1262;25413;-55
2022/08/05 23:50:17;;;;;;;6.90;5.70;;;27.80;57.40;;;;;;221415;1262;22523;-54
2022/08/05 23:55:21;;;;;;;7.30;5.50;;;27.90;57.50;;;;;;221129;1265;24239;-58
